Homestead, Montana
Current Conditions -  °F | °C
As of 10:52 PM on Thursday 27 Nov 2014 (Local Time) from KISN Reporting Station
Overcast Overcast  
Wind Chill:   Ceiling: 8500
Heat Index: 16°   Visibility: 10mi
Dew Point: 12°   Wind: 5mph
Humidity: 84%   Direction: 70°ENE
Pressure: 29.81"   Gusts: NA
Location:  48.42°N, 104.54°W
Report Text: KISN 280552Z AUTO 07004KT 10SM SCT070 OVC085 M09/M11 A2981 RMK AO2 SLP129 T10891111 11072 21106 410611167 56009
Loading
Personal Weather Stations






























Interactive Weather Map New forecast layout! Learn more

10-Day Weather Forecast

Advertisements
Track Severe Weather on mobile